Time;durP1;ratioP1;P1;durP2;ratioP2;P2;SDS_P1;SDS_P2;PMS_P1;PMS_P2;Temp;Humidity;BMP_temperature;BMP_pressure;BME280_temperature;BME280_humidity;BME280_pressure;Samples;Min_cycle;Max_cycle;Signal;HPM_P1;HPM_P2
2022/09/27 00:02:19;;;;;;;7.25;2.10;;;;;;;11.21;73.39;94773.38;5056703;28;20068;-77
2022/09/27 00:04:48;;;;;;;11.63;2.88;;;;;;;11.29;74.49;94771.59;5074932;28;20044;-77
2022/09/27 00:07:14;;;;;;;8.15;2.08;;;;;;;11.30;73.51;94772.38;5077263;28;20443;-76
2022/09/27 00:09:42;;;;;;;12.15;2.50;;;;;;;11.33;73.63;94764.28;5077469;28;20052;-77
2022/09/27 00:12:10;;;;;;;7.80;2.20;;;;;;;11.37;73.45;94762.41;5060485;28;20408;-77
2022/09/27 00:14:37;;;;;;;8.80;2.00;;;;;;;11.41;74.05;94762.47;5057059;28;20067;-78
2022/09/27 00:17:05;;;;;;;10.52;2.45;;;;;;;11.38;74.89;94752.28;5057134;28;20049;-77
2022/09/27 00:19:32;;;;;;;9.57;2.50;;;;;;;11.41;75.22;94754.28;5061621;28;20049;-77
2022/09/27 00:22:00;;;;;;;8.77;2.30;;;;;;;11.34;75.30;94754.19;5065448;28;20112;-77
2022/09/27 00:24:26;;;;;;;17.38;3.33;;;;;;;11.27;74.84;94746.63;5055793;28;20105;-77
2022/09/27 00:26:53;;;;;;;11.73;2.90;;;;;;;11.30;75.35;94739.69;5057058;28;20113;-78
2022/09/27 00:29:22;;;;;;;12.02;2.60;;;;;;;11.35;76.38;94742.91;5055912;28;20049;-77
2022/09/27 00:31:50;;;;;;;13.02;2.97;;;;;;;11.36;75.68;94738.25;5056340;28;20052;-77
2022/09/27 00:34:20;;;;;;;12.05;2.78;;;;;;;11.35;75.95;94725.75;5070346;28;20110;-78
2022/09/27 00:36:46;;;;;;;10.32;2.50;;;;;;;11.23;76.48;94729.47;5076148;28;20048;-77
2022/09/27 00:39:13;;;;;;;10.90;2.85;;;;;;;11.18;77.18;94727.81;5076129;28;20044;-77
2022/09/27 00:41:40;;;;;;;14.63;2.85;;;;;;;11.21;77.22;94721.63;5075220;28;20047;-77
2022/09/27 00:44:41;;;;;;;12.77;2.65;;;;;;;11.23;77.77;94724.00;5075104;28;20484;-77
2022/09/27 00:47:18;;;;;;;8.77;2.42;;;;;;;11.17;78.39;94731.69;5076495;28;20075;-77
2022/09/27 00:49:50;;;;;;;6.03;2.05;;;;;;;11.21;78.49;94740.69;5076121;28;20044;-77
2022/09/27 00:52:21;;;;;;;13.48;2.83;;;;;;;11.12;77.78;94734.72;5073777;28;20056;-77
2022/09/27 00:54:51;;;;;;;15.77;2.85;;;;;;;11.06;77.74;94735.34;5075550;28;20055;-78
2022/09/27 00:57:20;;;;;;;4.88;1.95;;;;;;;10.97;78.61;94730.13;5075679;28;20051;-77
2022/09/27 00:59:49;;;;;;;10.82;2.53;;;;;;;10.82;80.62;94715.44;5076256;28;20106;-78
2022/09/27 01:02:18;;;;;;;12.27;2.53;;;;;;;10.78;81.38;94714.59;5074283;28;20100;-77
2022/09/27 01:04:46;;;;;;;13.57;2.58;;;;;;;10.87;81.16;94722.53;5075829;28;20511;-77
2022/09/27 01:07:13;;;;;;;9.57;2.50;;;;;;;10.69;81.31;94716.72;5076203;28;20403;-78
2022/09/27 01:09:40;;;;;;;13.40;2.75;;;;;;;10.64;81.65;94709.63;5057165;28;20074;-77
2022/09/27 01:12:15;;;;;;;8.95;2.58;;;;;;;10.53;82.45;94710.56;5070791;28;20048;-77
2022/09/27 01:15:01;;;;;;;13.73;2.83;;;;;;;10.57;83.30;94704.06;5074733;28;20493;-77
2022/09/27 01:17:40;;;;;;;9.55;2.53;;;;;;;10.32;83.07;94708.19;5074835;28;20122;-75
2022/09/27 01:20:42;;;;;;;8.00;2.35;;;;;;;10.24;83.69;94704.53;5074384;28;20049;-77
2022/09/27 01:23:42;;;;;;;7.75;2.20;;;;;;;10.12;84.82;94702.66;5029492;28;20045;-77
2022/09/27 01:26:15;;;;;;;12.40;2.75;;;;;;;10.07;85.84;94696.72;5044665;28;20045;-77
2022/09/27 01:28:55;;;;;;;8.45;2.17;;;;;;;10.06;86.37;94698.66;5054051;28;20060;-76
2022/09/27 01:31:31;;;;;;;7.30;2.38;;;;;;;10.00;87.16;94700.06;5053873;28;20057;-77
2022/09/27 01:34:03;;;;;;;10.68;2.90;;;;;;;9.92;88.01;94692.91;5054307;28;20110;-77
2022/09/27 01:36:42;;;;;;;10.70;2.80;;;;;;;9.84;88.94;94699.31;5053831;28;20045;-77
2022/09/27 01:39:22;;;;;;;9.40;2.63;;;;;;;9.65;89.79;94687.22;5054454;28;20052;-77
2022/09/27 01:41:56;;;;;;;13.68;3.13;;;;;;;9.56;90.76;94686.66;5055621;28;20080;-77
2022/09/27 01:44:29;;;;;;;13.20;3.17;;;;;;;9.61;91.43;94675.50;5058268;28;20078;-77
2022/09/27 01:47:05;;;;;;;9.40;2.83;;;;;;;9.59;92.25;94672.34;5058530;28;20041;-77
2022/09/27 01:49:39;;;;;;;13.60;2.97;;;;;;;9.63;92.40;94677.88;5058022;28;20091;-77
2022/09/27 01:52:09;;;;;;;15.00;3.10;;;;;;;9.49;92.80;94672.88;5071416;28;20049;-77
2022/09/27 01:54:41;;;;;;;9.18;2.70;;;;;;;9.55;93.14;94660.63;5073650;28;20057;-77
2022/09/27 01:57:12;;;;;;;8.35;2.55;;;;;;;9.30;93.77;94653.78;5078811;28;20041;-77
2022/09/27 01:59:45;;;;;;;10.20;2.85;;;;;;;9.19;94.76;94655.44;5051518;28;20045;-78
2022/09/27 02:02:16;;;;;;;12.30;3.00;;;;;;;9.28;95.07;94656.06;5058806;28;20463;-77
2022/09/27 02:04:45;;;;;;;15.13;3.30;;;;;;;9.28;96.04;94656.06;5058442;28;20063;-77
2022/09/27 02:07:18;;;;;;;10.90;3.45;;;;;;;9.31;96.04;94655.38;5058711;28;20500;-77
2022/09/27 02:09:50;;;;;;;10.50;2.88;;;;;;;9.29;96.10;94658.44;5058506;28;20480;-77
2022/09/27 02:12:22;;;;;;;8.98;2.58;;;;;;;9.22;97.21;94652.03;5078447;28;20048;-78
2022/09/27 02:14:55;;;;;;;12.50;3.28;;;;;;;9.20;97.82;94649.69;5078957;28;20558;-77
2022/09/27 02:17:31;;;;;;;17.00;3.25;;;;;;;9.17;96.50;94649.56;5075501;28;20506;-77
2022/09/27 02:20:06;;;;;;;21.27;3.60;;;;;;;9.21;96.61;94655.91;5057759;28;20053;-77
2022/09/27 02:22:36;;;;;;;12.13;3.28;;;;;;;9.25;96.91;94654.06;5065672;28;20044;-77
2022/09/27 02:25:11;;;;;;;12.98;3.15;;;;;;;9.25;97.44;94651.34;5077425;28;20545;-77
2022/09/27 02:27:52;;;;;;;10.50;2.95;;;;;;;9.37;97.65;94643.88;5077831;28;20542;-75
2022/09/27 02:30:19;;;;;;;14.75;3.40;;;;;;;9.26;97.39;94642.84;5075750;28;20049;-77
2022/09/27 02:32:47;;;;;;;11.57;2.78;;;;;;;9.36;97.23;94641.53;5057882;28;20420;-77
2022/09/27 02:35:19;;;;;;;15.25;3.28;;;;;;;9.44;97.19;94640.53;5056866;28;20048;-78
2022/09/27 02:37:47;;;;;;;13.18;3.00;;;;;;;9.19;97.81;94647.28;5057647;28;20727;-77
2022/09/27 02:40:16;;;;;;;18.50;3.92;;;;;;;9.12;98.91;94654.13;5057381;28;20041;-78
2022/09/27 02:42:44;;;;;;;8.57;3.13;;;;;;;9.15;99.11;94655.38;5077996;28;20523;-78
2022/09/27 02:45:12;;;;;;;16.95;4.35;;;;;;;9.10;100.00;94656.41;5077913;28;20059;-78
2022/09/27 02:48:06;;;;;;;11.15;3.85;;;;;;;9.04;100.00;94657.03;5079205;28;20047;-77
2022/09/27 02:50:50;;;;;;;12.98;3.58;;;;;;;9.03;100.00;94648.09;5078572;28;20131;-78
2022/09/27 02:53:33;;;;;;;15.85;4.35;;;;;;;9.01;100.00;94657.72;5075692;28;20053;-78
2022/09/27 02:56:10;;;;;;;17.38;4.35;;;;;;;8.97;100.00;94646.75;5059849;28;20056;-77
2022/09/27 02:58:49;;;;;;;12.25;3.70;;;;;;;8.97;100.00;94649.47;5060318;28;20485;-76
2022/09/27 03:01:27;;;;;;;12.23;3.50;;;;;;;9.07;100.00;94635.38;5071353;28;20590;-76
2022/09/27 03:04:04;;;;;;;13.95;3.78;;;;;;;9.16;100.00;94632.50;5078637;28;20190;-79
2022/09/27 03:06:33;;;;;;;14.43;3.53;;;;;;;9.09;100.00;94614.13;5071891;22;20551;-78
2022/09/27 03:08:59;;;;;;;7.40;3.40;;;;;;;9.00;100.00;94613.50;5057696;28;20059;-79
2022/09/27 03:11:26;;;;;;;13.85;3.97;;;;;;;9.05;100.00;94613.22;5057178;28;20048;-78
2022/09/27 03:13:52;;;;;;;10.60;3.90;;;;;;;9.09;100.00;94621.47;5056714;28;20052;-79
2022/09/27 03:16:21;;;;;;;12.57;3.63;;;;;;;8.95;100.00;94605.59;5056936;28;20056;-77
2022/09/27 03:18:47;;;;;;;15.63;3.88;;;;;;;8.94;100.00;94604.03;5055883;28;20519;-80
2022/09/27 03:21:15;;;;;;;14.82;3.97;;;;;;;8.90;100.00;94603.16;5055731;28;20075;-79
2022/09/27 03:23:45;;;;;;;15.85;4.05;;;;;;;8.97;100.00;94600.59;5056099;28;20045;-77
2022/09/27 03:26:11;;;;;;;23.55;4.30;;;;;;;8.99;100.00;94606.50;5057360;28;20111;-78
2022/09/27 03:28:38;;;;;;;13.40;4.00;;;;;;;9.05;100.00;94596.94;5056784;28;20519;-77
2022/09/27 03:31:04;;;;;;;15.05;3.97;;;;;;;9.00;100.00;94597.19;5056555;28;20051;-79
2022/09/27 03:33:33;;;;;;;18.25;4.95;;;;;;;9.07;100.00;94599.28;5055497;28;20069;-78
2022/09/27 03:35:59;;;;;;;13.43;4.00;;;;;;;9.09;100.00;94586.97;5055567;28;20547;-78
2022/09/27 03:38:27;;;;;;;15.73;4.05;;;;;;;8.95;100.00;94589.31;5055361;28;20515;-78
2022/09/27 03:40:54;;;;;;;15.00;4.03;;;;;;;8.99;100.00;94584.78;5055589;28;20041;-78
2022/09/27 03:43:23;;;;;;;12.90;4.15;;;;;;;8.97;100.00;94592.47;5054410;28;20049;-79
2022/09/27 03:45:50;;;;;;;16.10;4.88;;;;;;;8.90;100.00;94581.44;5038372;28;20070;-78
2022/09/27 03:48:17;;;;;;;11.27;4.10;;;;;;;8.86;100.00;94575.13;5056021;28;20404;-78
2022/09/27 03:50:43;;;;;;;13.38;4.07;;;;;;;8.89;100.00;94579.88;5055526;28;20041;-76
2022/09/27 03:53:12;;;;;;;15.35;4.45;;;;;;;8.85;100.00;94573.56;5054826;28;20052;-77
2022/09/27 03:55:40;;;;;;;15.18;4.32;;;;;;;8.82;100.00;94563.38;5054394;28;20045;-77
2022/09/27 03:58:07;;;;;;;12.05;4.38;;;;;;;8.78;100.00;94573.38;5055276;28;20037;-77
2022/09/27 04:00:36;;;;;;;11.35;4.05;;;;;;;8.81;100.00;94578.09;5055407;28;20048;-78
2022/09/27 04:03:04;;;;;;;19.77;5.05;;;;;;;8.86;100.00;94561.56;5055114;28;20459;-79
2022/09/27 04:05:31;;;;;;;13.73;4.57;;;;;;;8.93;100.00;94564.47;5054725;28;20057;-77
2022/09/27 04:07:58;;;;;;;16.23;5.13;;;;;;;9.00;100.00;94567.34;5054223;28;20510;-78
2022/09/27 04:10:26;;;;;;;16.92;4.95;;;;;;;9.06;100.00;94560.50;5053104;28;20049;-78
2022/09/27 04:12:57;;;;;;;13.23;4.43;;;;;;;8.94;100.00;94555.16;5054769;28;20048;-78
2022/09/27 04:15:24;;;;;;;11.63;4.30;;;;;;;8.93;100.00;94558.22;5034790;28;20227;-76
2022/09/27 04:17:50;;;;;;;15.82;4.90;;;;;;;8.94;100.00;94544.31;5047294;28;20049;-78
2022/09/27 04:20:17;;;;;;;18.02;5.20;;;;;;;8.93;100.00;94553.59;5054402;28;20060;-77
2022/09/27 04:22:44;;;;;;;19.38;4.78;;;;;;;8.96;100.00;94542.03;5053570;28;20045;-78
2022/09/27 04:25:11;;;;;;;14.57;4.90;;;;;;;8.93;100.00;94548.19;5053707;28;20056;-77
2022/09/27 04:27:38;;;;;;;13.85;4.22;;;;;;;8.96;100.00;94547.44;5053790;28;20049;-76
2022/09/27 04:30:10;;;;;;;16.13;4.78;;;;;;;8.85;100.00;94549.91;5053586;28;20489;-77
2022/09/27 04:32:43;;;;;;;19.10;4.07;;;;;;;8.87;100.00;94549.56;5054929;28;20099;-77
2022/09/27 04:37:55;;;;;;;14.40;3.50;;;;;;;8.74;100.00;94561.66;5058317;28;20048;-77
2022/09/27 04:40:22;;;;;;;10.55;3.17;;;;;;;8.79;100.00;94564.09;5042087;28;20075;-77
2022/09/27 04:42:49;;;;;;;9.80;3.05;;;;;;;8.87;100.00;94571.25;5056544;28;20072;-78
2022/09/27 04:45:17;;;;;;;14.32;3.75;;;;;;;8.83;100.00;94570.41;5054080;28;20139;-77
2022/09/27 04:47:44;;;;;;;11.82;2.90;;;;;;;8.92;100.00;94560.16;5054538;28;20547;-76
2022/09/27 04:50:11;;;;;;;11.23;2.92;;;;;;;9.02;100.00;94567.75;5053226;28;20061;-78
2022/09/27 04:52:37;;;;;;;11.80;2.92;;;;;;;9.01;100.00;94568.13;5054080;28;20045;-76
2022/09/27 04:55:05;;;;;;;12.73;2.90;;;;;;;9.13;100.00;94570.72;5055921;28;20048;-77
2022/09/27 04:57:31;;;;;;;13.32;5.50;;;;;;;9.16;100.00;94572.75;5058109;28;20465;-77
2022/09/27 04:59:59;;;;;;;18.15;4.88;;;;;;;9.21;100.00;94569.78;5058645;28;20047;-76
2022/09/27 05:02:27;;;;;;;14.25;3.67;;;;;;;9.19;100.00;94576.69;5055972;28;20132;-76
2022/09/27 05:04:56;;;;;;;24.35;3.95;;;;;;;9.27;100.00;94575.72;5053979;28;20076;-76
2022/09/27 05:07:23;;;;;;;14.57;3.28;;;;;;;9.31;100.00;94580.09;5053521;28;20508;-77
2022/09/27 05:09:50;;;;;;;9.27;3.00;;;;;;;9.28;99.72;94583.50;5054093;28;20091;-79
2022/09/27 05:12:16;;;;;;;14.43;3.15;;;;;;;9.26;98.24;94590.44;5060189;28;20045;-78
2022/09/27 05:14:44;;;;;;;9.75;2.78;;;;;;;9.36;98.92;94587.19;5061932;28;20057;-79
2022/09/27 05:17:13;;;;;;;10.80;2.65;;;;;;;9.35;98.78;94591.06;5061895;28;20136;-80
2022/09/27 05:19:41;;;;;;;10.65;2.95;;;;;;;9.29;98.77;94584.28;5066928;28;20068;-80
2022/09/27 05:22:09;;;;;;;8.38;2.53;;;;;;;9.46;99.09;94581.22;5071569;28;20049;-80
2022/09/27 05:24:37;;;;;;;6.38;2.42;;;;;;;9.46;98.97;94585.88;5070353;28;20048;-77
2022/09/27 05:27:07;;;;;;;13.13;2.95;;;;;;;9.45;99.09;94576.94;5068317;28;20052;-78
2022/09/27 05:29:34;;;;;;;11.30;2.60;;;;;;;9.54;99.48;94593.81;5066818;28;20041;-76
2022/09/27 05:32:01;;;;;;;11.35;2.88;;;;;;;9.58;98.90;94589.25;5062188;28;20060;-77
2022/09/27 05:34:31;;;;;;;8.40;3.15;;;;;;;9.64;98.95;94598.69;5066844;28;20061;-77
2022/09/27 05:36:59;;;;;;;9.68;2.95;;;;;;;9.67;99.08;94608.88;5065117;28;20048;-77
2022/09/27 05:39:25;;;;;;;9.85;3.22;;;;;;;9.62;99.00;94603.72;5065839;28;20051;-77
2022/09/27 05:41:54;;;;;;;14.13;3.30;;;;;;;9.57;98.51;94606.69;5065498;28;20044;-78
2022/09/27 05:44:21;;;;;;;15.63;3.28;;;;;;;9.64;99.04;94609.56;5064990;28;20079;-78
2022/09/27 05:46:50;;;;;;;11.05;3.05;;;;;;;9.60;98.86;94608.69;5064383;28;20056;-78
2022/09/27 05:49:17;;;;;;;14.02;3.40;;;;;;;9.64;98.34;94612.28;5065295;28;20056;-77
2022/09/27 05:51:43;;;;;;;22.52;3.95;;;;;;;9.75;98.37;94622.59;5060459;28;20056;-78
2022/09/27 05:54:11;;;;;;;16.23;3.50;;;;;;;9.71;98.42;94613.56;5058100;28;20037;-77
2022/09/27 05:56:38;;;;;;;13.45;3.22;;;;;;;9.52;98.78;94611.63;5058465;28;20044;-77
2022/09/27 05:59:04;;;;;;;15.98;2.90;;;;;;;9.43;99.45;94624.59;5058861;28;20048;-77
2022/09/27 06:01:30;;;;;;;10.75;2.88;;;;;;;9.47;97.85;94615.38;5060163;28;20048;-77
2022/09/27 06:03:57;;;;;;;12.93;2.58;;;;;;;9.50;97.21;94625.56;5060603;28;20045;-77
2022/09/27 06:06:24;;;;;;;8.55;2.08;;;;;;;9.33;97.79;94620.47;5061649;28;20091;-75
2022/09/27 06:08:50;;;;;;;9.63;2.20;;;;;;;9.35;96.43;94629.09;5063997;28;20051;-77
2022/09/27 06:11:21;;;;;;;8.05;1.70;;;;;;;9.31;94.88;94634.44;5064078;28;20049;-76
2022/09/27 06:13:50;;;;;;;7.10;1.38;;;;;;;9.32;92.12;94635.22;5064043;28;20114;-75
2022/09/27 06:16:16;;;;;;;8.48;1.60;;;;;;;9.43;91.69;94643.63;5064938;28;20045;-77
2022/09/27 06:18:43;;;;;;;11.15;2.28;;;;;;;9.43;92.87;94635.47;5064153;28;20071;-77
2022/09/27 06:21:09;;;;;;;5.90;1.50;;;;;;;9.52;92.15;94642.28;5064992;28;20049;-77
2022/09/27 06:23:36;;;;;;;8.82;2.10;;;;;;;9.45;92.92;94639.41;5062885;28;20404;-77
2022/09/27 06:26:04;;;;;;;11.02;2.38;;;;;;;9.40;92.14;94647.84;5061207;28;20041;-79
2022/09/27 06:28:34;;;;;;;8.55;1.90;;;;;;;9.62;92.17;94654.56;5059556;28;20041;-78
2022/09/27 06:31:00;;;;;;;5.82;1.60;;;;;;;9.54;91.88;94658.22;5057275;28;20076;-78
2022/09/27 06:33:27;;;;;;;6.80;1.70;;;;;;;9.44;93.62;94662.28;5058723;28;20049;-77
2022/09/27 06:35:54;;;;;;;7.60;1.48;;;;;;;9.43;91.92;94671.56;5060240;28;20045;-77
2022/09/27 06:38:23;;;;;;;9.02;1.30;;;;;;;9.59;92.04;94674.28;5062171;28;20056;-77
2022/09/27 06:40:50;;;;;;;6.28;1.50;;;;;;;9.57;91.19;94669.19;5042921;28;20049;-77
2022/09/27 06:43:19;;;;;;;7.47;1.63;;;;;;;9.65;90.24;94662.78;5061935;28;20099;-78
2022/09/27 06:45:49;;;;;;;8.00;1.55;;;;;;;9.57;90.04;94685.50;5060440;28;20045;-78
2022/09/27 06:48:16;;;;;;;8.40;1.77;;;;;;;9.50;90.62;94685.34;5060329;28;20064;-77
2022/09/27 06:50:45;;;;;;;8.30;1.88;;;;;;;9.61;90.85;94691.81;5061186;28;20053;-77
2022/09/27 06:53:13;;;;;;;7.50;1.60;;;;;;;9.53;90.90;94692.78;5060974;28;20053;-77
2022/09/27 06:55:41;;;;;;;5.60;1.27;;;;;;;9.52;90.56;94693.91;5061250;28;20408;-78
2022/09/27 07:00:53;;;;;;;7.72;1.58;;;;;;;9.66;91.06;94699.69;5060596;28;20064;-77
2022/09/27 07:03:31;;;;;;;3.75;1.10;;;;;;;9.75;90.26;94701.44;5059637;28;20510;-79
2022/09/27 07:06:01;;;;;;;5.25;1.30;;;;;;;9.78;91.07;94696.09;5060896;28;20124;-78
2022/09/27 07:08:29;;;;;;;3.40;0.98;;;;;;;9.81;91.07;94700.00;5060865;28;20049;-79
2022/09/27 07:10:56;;;;;;;7.38;1.40;;;;;;;9.97;88.16;94703.53;5061021;28;20056;-79
2022/09/27 07:13:23;;;;;;;10.77;2.10;;;;;;;10.50;85.39;94709.38;5061140;28;20052;-80
2022/09/27 07:15:51;;;;;;;7.22;1.55;;;;;;;10.36;83.62;94703.63;5056000;28;20099;-81
2022/09/27 07:18:20;;;;;;;4.57;1.15;;;;;;;10.11;84.58;94698.38;5056155;28;20069;-85
2022/09/27 07:23:53;;;;;;;7.85;1.60;;;;;;;11.24;77.97;94704.56;5074136;28;20075;-81
2022/09/27 07:26:20;;;;;;;3.25;1.00;;;;;;;11.58;77.71;94715.66;5067792;28;20052;-80
2022/09/27 07:28:46;;;;;;;2.65;1.48;;;;;;;11.55;74.88;94724.56;5072499;28;20126;-83
2022/09/27 07:31:13;;;;;;;3.10;1.20;;;;;;;12.00;75.20;94729.22;5064840;28;20074;-80
2022/09/27 07:33:59;;;;;;;2.65;0.93;;;;;;;12.01;73.53;94730.81;5067788;28;20049;-86
2022/09/27 07:36:29;;;;;;;84.82;19.17;;;;;;;12.47;74.86;94727.94;5510488;23;20116;-80
2022/09/27 07:38:59;;;;;;;2.50;0.80;;;;;;;12.16;73.18;94723.63;5077786;28;20041;-82
2022/09/27 07:41:32;;;;;;;3.80;1.02;;;;;;;11.84;73.69;94725.06;5243650;23;20257;-82
2022/09/27 07:44:03;;;;;;;25.33;3.93;;;;;;;11.32;73.14;94726.47;5197252;22;20037;-81
2022/09/27 07:58:19;;;;;;;10.23;2.53;;;;;;;11.93;70.51;94733.78;6078670;23;20006;31
2022/09/27 08:00:46;;;;;;;2.30;0.77;;;;;;;11.57;70.85;94733.16;4879784;29;20116;-79
2022/09/27 08:03:15;;;;;;;3.67;0.82;;;;;;;11.38;71.83;94730.47;4872761;29;20060;-81
2022/09/27 08:05:44;;;;;;;2.75;0.90;;;;;;;11.03;73.57;94731.41;4890302;29;20041;-81
2022/09/27 08:08:11;;;;;;;3.40;0.98;;;;;;;10.88;73.96;94735.00;4879945;29;20060;-80
2022/09/27 08:15:34;;;;;;;4.88;1.27;;;;;;;10.93;76.14;94753.78;5070328;23;20484;-80
2022/09/27 08:18:01;;;;;;;5.85;1.63;;;;;;;10.81;79.70;94757.44;4958588;28;20047;-82
2022/09/27 08:20:28;;;;;;;8.80;1.65;;;;;;;10.51;82.84;94765.38;4944511;29;20087;-81
2022/09/27 08:22:56;;;;;;;6.40;1.52;;;;;;;10.27;83.68;94771.81;4949995;28;20058;-79
2022/09/27 08:25:23;;;;;;;7.05;1.75;;;;;;;9.48;88.46;94768.31;4960528;29;20059;-79
2022/09/27 08:27:55;;;;;;;5.80;1.38;;;;;;;9.24;89.46;94763.81;4975543;23;20162;-82
2022/09/27 08:30:22;;;;;;;4.65;1.00;;;;;;;9.26;89.83;94778.63;4951916;28;20051;-82
2022/09/27 08:32:49;;;;;;;5.45;1.13;;;;;;;8.82;91.96;94780.50;4952664;28;20052;-80
2022/09/27 08:35:15;;;;;;;7.63;1.52;;;;;;;8.61;94.31;94792.38;4939892;29;20369;-79
2022/09/27 08:37:42;;;;;;;5.88;1.48;;;;;;;8.51;94.11;94786.59;4946041;29;20051;-78
2022/09/27 08:40:16;;;;;;;2.45;0.90;;;;;;;8.52;94.23;94794.41;4960812;28;20070;-80
2022/09/27 08:42:49;;;;;;;4.90;1.27;;;;;;;8.42;95.51;94800.31;4959006;29;20047;-80
2022/09/27 08:45:22;;;;;;;2.65;0.82;;;;;;;8.29;94.50;94806.84;4965948;29;20047;-81
2022/09/27 08:47:54;;;;;;;1.25;0.60;;;;;;;8.28;95.31;94808.75;4963354;29;20039;-82
2022/09/27 08:50:26;;;;;;;3.15;0.95;;;;;;;8.26;94.70;94802.13;4966553;28;20051;-82
2022/09/27 08:52:57;;;;;;;4.50;1.40;;;;;;;8.49;96.19;94800.50;4958482;28;20093;-79
2022/09/27 09:00:30;;;;;;;2.15;0.63;;;;;;;8.87;94.18;94812.84;5330690;23;20043;-82
2022/09/27 09:03:01;;;;;;;3.65;0.73;;;;;;;8.81;89.71;94816.94;4974639;28;20047;-80
2022/09/27 09:05:33;;;;;;;3.28;0.82;;;;;;;8.91;91.91;94815.66;4971475;29;20035;-81
2022/09/27 09:08:23;;;;;;;3.92;1.27;;;;;;;8.86;89.20;94809.34;4971593;28;20049;-80
2022/09/27 09:13:58;;;;;;;4.25;1.08;;;;;;;8.95;88.80;94817.34;4971841;29;20062;-81
2022/09/27 09:16:41;;;;;;;2.15;0.73;;;;;;;9.10;92.04;94816.63;4972243;28;20051;-81
2022/09/27 09:19:25;;;;;;;6.25;0.80;;;;;;;9.37;90.57;94814.22;4973466;28;20090;-80
2022/09/27 09:21:57;;;;;;;;;;;;;;;9.66;92.54;94813.84;4974628;28;20051;-81
2022/09/27 09:24:38;;;;;;;1.00;0.50;;;;;;;9.91;88.18;94809.03;4976626;28;19910;-82
2022/09/27 09:27:10;;;;;;;4.85;1.00;;;;;;;10.05;90.27;94805.88;4978602;28;20041;-82
2022/09/27 09:29:55;;;;;;;4.80;1.30;;;;;;;10.08;88.03;94807.91;4978007;28;20035;-82
2022/09/27 09:32:34;;;;;;;3.60;0.70;;;;;;;10.01;84.31;94799.53;4973740;28;20043;-80
2022/09/27 09:35:03;;;;;;;5.65;1.23;;;;;;;10.19;86.80;94808.94;4954440;23;20052;-77
2022/09/27 09:37:38;;;;;;;4.18;1.10;;;;;;;10.28;85.08;94805.25;4938008;29;20048;-79
2022/09/27 09:40:14;;;;;;;2.15;0.70;;;;;;;10.40;83.87;94800.50;4939621;29;20059;-81
2022/09/27 09:42:49;;;;;;;5.55;0.90;;;;;;;10.42;81.57;94800.13;4942885;29;20393;-80
2022/09/27 09:45:21;;;;;;;4.40;0.90;;;;;;;10.36;80.76;94807.00;4938953;29;20059;-79
2022/09/27 09:47:54;;;;;;;3.28;0.90;;;;;;;10.38;78.89;94802.00;4938898;29;20079;-81
2022/09/27 09:50:26;;;;;;;4.13;1.08;;;;;;;10.54;79.71;94796.50;4960103;23;20051;-79
2022/09/27 09:52:58;;;;;;;4.40;0.98;;;;;;;10.46;79.12;94801.00;4947892;28;20075;-80
2022/09/27 09:55:29;;;;;;;5.47;1.13;;;;;;;10.55;77.32;94798.91;4942667;29;20542;-79
2022/09/27 09:58:10;;;;;;;5.93;0.98;;;;;;;10.74;80.52;94811.72;4941409;29;20054;-81
2022/09/27 10:00:38;;;;;;;3.70;0.93;;;;;;;10.53;77.84;94822.16;4940687;29;20055;-82
2022/09/27 10:03:06;;;;;;;3.30;1.35;;;;;;;10.60;76.78;94825.84;4942500;29;20051;-77
2022/09/27 10:05:33;;;;;;;4.30;1.25;;;;;;;10.40;77.77;94821.50;4958487;28;20051;-78
2022/09/27 10:08:04;;;;;;;2.33;0.88;;;;;;;10.56;76.74;94816.78;4957247;28;20047;-77
2022/09/27 10:10:31;;;;;;;3.13;0.82;;;;;;;10.32;75.03;94817.00;4960734;29;20092;-78
2022/09/27 10:12:57;;;;;;;10.80;1.75;;;;;;;10.43;78.16;94826.19;4959086;28;20055;-78
2022/09/27 10:15:28;;;;;;;4.57;1.08;;;;;;;10.70;79.44;94821.75;4958258;29;20055;-77
2022/09/27 10:18:00;;;;;;;6.05;1.25;;;;;;;10.74;75.68;94821.84;4956830;28;20047;-77
2022/09/27 10:20:34;;;;;;;7.80;1.33;;;;;;;10.75;77.23;94829.63;4944355;29;20066;-77
2022/09/27 10:23:06;;;;;;;7.90;1.42;;;;;;;10.82;76.10;94835.25;4949107;28;20076;-77
2022/09/27 10:25:46;;;;;;;6.18;1.17;;;;;;;10.87;77.58;94831.47;4940435;29;20051;-76
2022/09/27 10:28:27;;;;;;;6.15;1.15;;;;;;;10.93;78.14;94835.47;4939788;29;20050;-78
2022/09/27 10:30:56;;;;;;;8.57;1.52;;;;;;;11.00;78.76;94843.78;4940905;29;20070;-76
2022/09/27 10:33:23;;;;;;;2.83;0.77;;;;;;;11.01;77.76;94837.19;4940095;29;20052;-76
2022/09/27 10:35:52;;;;;;;5.15;1.05;;;;;;;10.97;77.24;94839.06;4939865;29;20393;-76
2022/09/27 10:38:24;;;;;;;4.63;1.40;;;;;;;11.13;74.36;94839.81;4945896;29;20057;-77
2022/09/27 10:40:52;;;;;;;4.43;1.30;;;;;;;11.29;73.32;94847.13;4958496;29;20062;-76
2022/09/27 10:43:28;;;;;;;3.35;1.05;;;;;;;11.49;72.88;94837.78;4958895;29;20474;-77
2022/09/27 10:46:20;;;;;;;2.00;0.82;;;;;;;11.72;70.67;94843.25;4959246;29;20055;-77
2022/09/27 10:48:48;;;;;;;3.08;1.20;;;;;;;11.64;71.75;94847.00;4958285;29;20047;-79
2022/09/27 10:51:28;;;;;;;3.00;1.13;;;;;;;11.40;69.00;94837.22;4962622;29;20051;-77
2022/09/27 10:53:59;;;;;;;4.32;1.25;;;;;;;11.18;68.47;94852.34;4961428;28;20061;-77
2022/09/27 10:56:31;;;;;;;2.33;0.90;;;;;;;11.23;69.97;94850.13;4959765;28;20543;-79
2022/09/27 10:58:59;;;;;;;3.53;1.30;;;;;;;10.83;70.83;94857.81;4961444;29;20054;-78
2022/09/27 11:01:27;;;;;;;4.80;1.05;;;;;;;10.93;70.03;94851.81;4960722;29;20101;-76
2022/09/27 11:03:57;;;;;;;4.25;0.88;;;;;;;11.07;74.79;94851.34;4960164;29;20051;-78
2022/09/27 11:06:36;;;;;;;2.28;0.80;;;;;;;11.02;71.13;94851.63;4965996;29;20062;-81
2022/09/27 11:09:17;;;;;;;7.72;1.00;;;;;;;11.08;68.72;94852.91;4962091;28;20047;-78
2022/09/27 11:11:45;;;;;;;3.83;0.88;;;;;;;10.86;71.18;94860.63;4960491;28;20071;-77
2022/09/27 11:14:19;;;;;;;3.08;0.95;;;;;;;10.59;70.72;94853.38;4958121;28;20059;-76
2022/09/27 11:17:02;;;;;;;3.13;0.93;;;;;;;10.76;73.58;94844.06;4958262;29;20059;-77
2022/09/27 11:19:45;;;;;;;3.42;0.75;;;;;;;10.94;73.84;94845.22;4958308;29;20455;-77
2022/09/27 11:22:34;;;;;;;4.13;1.08;;;;;;;11.03;72.15;94840.38;4957323;29;20062;-79
2022/09/27 11:25:15;;;;;;;4.57;1.23;;;;;;;11.05;68.46;94838.06;4957941;29;20043;-76
2022/09/27 11:27:55;;;;;;;7.38;1.88;;;;;;;11.31;69.95;94844.81;4955532;29;20062;-75
2022/09/27 11:30:24;;;;;;;8.35;1.98;;;;;;;11.19;68.73;94851.19;4954919;28;20043;-75
2022/09/27 11:33:08;;;;;;;8.93;2.15;;;;;;;10.94;67.75;94845.22;4954097;28;20043;-77
2022/09/27 11:35:47;;;;;;;4.90;1.35;;;;;;;10.96;68.10;94851.09;4954292;28;20078;-76
2022/09/27 11:38:26;;;;;;;3.83;1.25;;;;;;;10.81;68.32;94850.03;4955654;29;20043;-76
2022/09/27 11:41:07;;;;;;;2.15;0.95;;;;;;;10.90;68.50;94844.34;4957124;29;20053;-80
2022/09/27 11:43:54;;;;;;;1.52;0.70;;;;;;;10.93;67.60;94835.47;4956669;29;20050;-76
2022/09/27 11:46:28;;;;;;;1.45;0.80;;;;;;;11.24;70.11;94835.34;4959053;29;20095;-76
2022/09/27 11:49:27;;;;;;;0.95;0.60;;;;;;;11.28;68.08;94840.09;4957114;29;20087;-78
2022/09/27 11:52:13;;;;;;;0.52;0.30;;;;;;;11.16;68.92;94833.63;4955011;28;20082;-76
2022/09/27 11:55:00;;;;;;;2.25;0.88;;;;;;;11.26;67.52;94826.03;4959627;28;20054;-77
2022/09/27 11:57:33;;;;;;;2.85;0.73;;;;;;;11.12;67.83;94835.50;4962933;28;20098;-79
2022/09/27 12:00:21;;;;;;;1.98;0.90;;;;;;;11.43;69.34;94831.84;4960015;28;20043;-78
2022/09/27 12:03:12;;;;;;;3.17;0.80;;;;;;;11.59;67.35;94829.03;4961296;29;20051;-81
2022/09/27 12:05:52;;;;;;;3.70;1.17;;;;;;;11.72;67.51;94837.81;4953964;28;20134;-77
2022/09/27 12:08:31;;;;;;;5.00;1.23;;;;;;;11.42;69.18;94840.34;4939755;29;20411;-79
2022/09/27 12:11:08;;;;;;;3.20;0.90;;;;;;;11.13;71.93;94845.25;4958637;29;20047;-79
2022/09/27 12:13:41;;;;;;;3.33;0.80;;;;;;;10.95;71.92;94849.53;4954799;29;20059;-79
2022/09/27 12:16:10;;;;;;;4.10;1.02;;;;;;;10.63;72.04;94849.59;4938056;29;20787;-77
2022/09/27 12:18:39;;;;;;;4.03;1.35;;;;;;;9.88;77.17;94863.31;4941145;29;20557;-78
2022/09/27 12:21:08;;;;;;;4.80;1.42;;;;;;;9.18;83.43;94862.97;4957597;29;20059;-77
2022/09/27 12:23:40;;;;;;;4.60;1.20;;;;;;;9.05;83.73;94878.53;4952512;28;20056;-78
2022/09/27 12:26:12;;;;;;;5.35;1.30;;;;;;;8.72;83.78;94882.22;4937795;29;20051;-78
2022/09/27 12:28:46;;;;;;;4.57;1.23;;;;;;;8.43;85.45;94894.09;4938492;29;20059;-78